sensor_id;sensor_type;location;lat;lon;timestamp;pressure;altitude;pressure_sealevel;temperature;humidity
50268;BME280;36153;50.960;6.220;2023-04-07T00:01:36;100432.34;;;12.54;67.46
50268;BME280;36153;50.960;6.220;2023-04-07T00:04:36;100428.00;;;12.50;67.41
50268;BME280;36153;50.960;6.220;2023-04-07T00:07:37;100434.94;;;12.41;68.28
50268;BME280;36153;50.960;6.220;2023-04-07T00:10:37;100431.50;;;12.56;67.36
50268;BME280;36153;50.960;6.220;2023-04-07T00:13:38;100441.91;;;12.45;67.65
50268;BME280;36153;50.960;6.220;2023-04-07T00:16:38;100438.44;;;12.40;68.25
50268;BME280;36153;50.960;6.220;2023-04-07T00:19:39;100436.63;;;12.25;68.17
50268;BME280;36153;50.960;6.220;2023-04-07T00:22:39;100429.69;;;12.29;69.07
50268;BME280;36153;50.960;6.220;2023-04-07T00:25:39;100433.22;;;12.40;68.24
50268;BME280;36153;50.960;6.220;2023-04-07T00:28:40;100426.25;;;12.33;68.27
50268;BME280;36153;50.960;6.220;2023-04-07T00:31:41;100429.72;;;12.41;68.01
50268;BME280;36153;50.960;6.220;2023-04-07T00:34:41;100427.94;;;12.31;68.03
50268;BME280;36153;50.960;6.220;2023-04-07T00:37:42;100420.16;;;12.39;67.92
50268;BME280;36153;50.960;6.220;2023-04-07T00:40:42;100422.78;;;12.42;67.88
50268;BME280;36153;50.960;6.220;2023-04-07T00:43:43;100422.78;;;12.46;67.06
50268;BME280;36153;50.960;6.220;2023-04-07T00:46:44;100426.25;;;12.39;67.87
50268;BME280;36153;50.960;6.220;2023-04-07T00:49:46;100424.50;;;12.41;67.47
50268;BME280;36153;50.960;6.220;2023-04-07T00:52:47;100427.13;;;12.51;67.36
50268;BME280;36153;50.960;6.220;2023-04-07T00:55:47;100423.66;;;12.47;66.67
50268;BME280;36153;50.960;6.220;2023-04-07T00:58:48;100428.03;;;12.56;66.80
50268;BME280;36153;50.960;6.220;2023-04-07T01:02:02;100428.03;;;12.57;66.70
50268;BME280;36153;50.960;6.220;2023-04-07T01:05:30;100422.78;;;12.50;66.96
50268;BME280;36153;50.960;6.220;2023-04-07T01:09:15;100420.16;;;12.48;66.72
50268;BME280;36153;50.960;6.220;2023-04-07T01:15:45;100418.44;;;12.53;66.86
50268;BME280;36153;50.960;6.220;2023-04-07T01:18:51;100424.53;;;12.51;66.96
50268;BME280;36153;50.960;6.220;2023-04-07T01:21:55;100414.94;;;12.39;67.60
50268;BME280;36153;50.960;6.220;2023-04-07T01:31:39;100436.69;;;12.42;67.55
50268;BME280;36153;50.960;6.220;2023-04-07T01:34:40;100433.16;;;12.28;68.22
50268;BME280;36153;50.960;6.220;2023-04-07T01:37:42;100426.19;;;12.27;68.02
50268;BME280;36153;50.960;6.220;2023-04-07T01:40:46;100429.75;;;12.55;67.43
50268;BME280;36153;50.960;6.220;2023-04-07T01:43:47;100431.50;;;12.53;67.16
50268;BME280;36153;50.960;6.220;2023-04-07T01:46:48;100431.50;;;12.56;67.48
50268;BME280;36153;50.960;6.220;2023-04-07T01:49:50;100432.38;;;12.63;67.40
50268;BME280;36153;50.960;6.220;2023-04-07T01:52:52;100434.09;;;12.52;67.49
50268;BME280;36153;50.960;6.220;2023-04-07T01:55:53;100429.75;;;12.44;67.63
50268;BME280;36153;50.960;6.220;2023-04-07T01:58:53;100433.13;;;12.16;67.86
50268;BME280;36153;50.960;6.220;2023-04-07T02:01:54;100433.16;;;12.26;67.51
50268;BME280;36153;50.960;6.220;2023-04-07T02:04:59;100433.13;;;12.22;67.40
50268;BME280;36153;50.960;6.220;2023-04-07T02:08:07;100421.84;;;12.27;67.30
50268;BME280;36153;50.960;6.220;2023-04-07T02:11:09;100433.16;;;12.23;67.88
50268;BME280;36153;50.960;6.220;2023-04-07T02:14:12;100429.66;;;12.21;68.23
50268;BME280;36153;50.960;6.220;2023-04-07T02:17:13;100430.56;;;12.29;67.93
50268;BME280;36153;50.960;6.220;2023-04-07T02:20:15;100431.41;;;12.19;68.30
50268;BME280;36153;50.960;6.220;2023-04-07T02:23:17;100428.84;;;12.39;67.50
50268;BME280;36153;50.960;6.220;2023-04-07T02:26:17;100421.03;;;12.39;67.36
50268;BME280;36153;50.960;6.220;2023-04-07T02:29:18;100432.31;;;12.31;67.92
50268;BME280;36153;50.960;6.220;2023-04-07T02:32:18;100443.59;;;12.25;67.93
50268;BME280;36153;50.960;6.220;2023-04-07T02:35:19;100441.78;;;12.05;68.19
50268;BME280;36153;50.960;6.220;2023-04-07T02:38:19;100442.66;;;12.04;68.33
50268;BME280;36153;50.960;6.220;2023-04-07T02:41:20;100439.94;;;11.89;68.07
50268;BME280;36153;50.960;6.220;2023-04-07T02:44:20;100443.56;;;12.17;67.40
50268;BME280;36153;50.960;6.220;2023-04-07T02:47:21;100448.63;;;11.88;67.89
50268;BME280;36153;50.960;6.220;2023-04-07T02:50:21;100444.41;;;12.07;66.93
50268;BME280;36153;50.960;6.220;2023-04-07T02:53:22;100448.63;;;11.91;67.42
50268;BME280;36153;50.960;6.220;2023-04-07T02:56:23;100446.00;;;11.91;67.69
50268;BME280;36153;50.960;6.220;2023-04-07T02:59:23;100447.81;;;11.95;67.15
50268;BME280;36153;50.960;6.220;2023-04-07T03:02:24;100446.97;;;12.01;67.03
50268;BME280;36153;50.960;6.220;2023-04-07T03:05:24;100451.31;;;11.95;67.05
50268;BME280;36153;50.960;6.220;2023-04-07T03:08:25;100456.47;;;11.92;67.55
50268;BME280;36153;50.960;6.220;2023-04-07T03:11:26;100453.00;;;11.93;67.27
50268;BME280;36153;50.960;6.220;2023-04-07T03:14:27;100452.06;;;11.81;67.55
50268;BME280;36153;50.960;6.220;2023-04-07T03:17:27;100450.47;;;12.04;66.82
50268;BME280;36153;50.960;6.220;2023-04-07T03:20:31;100454.78;;;12.01;66.56
50268;BME280;36153;50.960;6.220;2023-04-07T03:23:31;100459.16;;;12.03;66.40
50268;BME280;36153;50.960;6.220;2023-04-07T03:26:32;100467.06;;;12.20;65.90
50268;BME280;36153;50.960;6.220;2023-04-07T03:29:32;100460.97;;;12.23;66.07
50268;BME280;36153;50.960;6.220;2023-04-07T03:32:33;100460.13;;;12.30;65.75
50268;BME280;36153;50.960;6.220;2023-04-07T03:35:33;100466.16;;;12.12;65.98
50268;BME280;36153;50.960;6.220;2023-04-07T03:38:34;100459.16;;;12.06;66.16
50268;BME280;36153;50.960;6.220;2023-04-07T03:41:34;100462.69;;;12.15;65.59
50268;BME280;36153;50.960;6.220;2023-04-07T03:44:35;100460.91;;;12.07;66.00
50268;BME280;36153;50.960;6.220;2023-04-07T03:47:35;100454.78;;;12.04;66.08
50268;BME280;36153;50.960;6.220;2023-04-07T03:50:37;100469.47;;;11.88;66.46
50268;BME280;36153;50.960;6.220;2023-04-07T03:53:38;100466.03;;;11.89;66.69
50268;BME280;36153;50.960;6.220;2023-04-07T03:56:38;100471.19;;;11.83;66.51
50268;BME280;36153;50.960;6.220;2023-04-07T03:59:39;100468.75;;;12.09;65.98
50268;BME280;36153;50.960;6.220;2023-04-07T04:02:40;100465.22;;;11.98;66.06
50268;BME280;36153;50.960;6.220;2023-04-07T04:05:41;100467.00;;;12.08;65.71
50268;BME280;36153;50.960;6.220;2023-04-07T04:08:41;100477.22;;;11.75;66.53
50268;BME280;36153;50.960;6.220;2023-04-07T04:11:41;100467.84;;;12.02;65.89
50268;BME280;36153;50.960;6.220;2023-04-07T04:14:42;100475.53;;;11.82;66.25
50268;BME280;36153;50.960;6.220;2023-04-07T04:17:42;100475.59;;;11.91;65.27
50268;BME280;36153;50.960;6.220;2023-04-07T04:20:43;100466.06;;;11.98;65.55
50268;BME280;36153;50.960;6.220;2023-04-07T04:23:43;100472.97;;;11.90;65.42
50268;BME280;36153;50.960;6.220;2023-04-07T04:26:44;100480.69;;;11.76;65.80
50268;BME280;36153;50.960;6.220;2023-04-07T04:29:45;100475.41;;;11.62;66.07
50268;BME280;36153;50.960;6.220;2023-04-07T04:32:46;100473.69;;;11.63;65.37
50268;BME280;36153;50.960;6.220;2023-04-07T04:35:46;100480.69;;;11.74;64.62
50268;BME280;36153;50.960;6.220;2023-04-07T04:38:47;100484.13;;;11.64;64.45
50268;BME280;36153;50.960;6.220;2023-04-07T04:41:47;100492.03;;;11.83;63.69
50268;BME280;36153;50.960;6.220;2023-04-07T04:44:48;100499.00;;;11.81;63.48
50268;BME280;36153;50.960;6.220;2023-04-07T04:47:48;100504.22;;;11.79;63.25
50268;BME280;36153;50.960;6.220;2023-04-07T04:50:49;100496.53;;;11.96;63.16
50268;BME280;36153;50.960;6.220;2023-04-07T04:53:49;100501.81;;;12.07;62.99
50268;BME280;36153;50.960;6.220;2023-04-07T04:56:50;100493.81;;;11.87;63.34
50268;BME280;36153;50.960;6.220;2023-04-07T04:59:50;100506.00;;;11.91;63.38
50268;BME280;36153;50.960;6.220;2023-04-07T05:02:51;100506.78;;;11.76;63.88
50268;BME280;36153;50.960;6.220;2023-04-07T05:05:51;100504.22;;;11.81;63.56
50268;BME280;36153;50.960;6.220;2023-04-07T05:08:52;100515.56;;;11.87;63.48
50268;BME280;36153;50.960;6.220;2023-04-07T05:11:52;100514.66;;;11.84;63.58
50268;BME280;36153;50.960;6.220;2023-04-07T05:14:53;100515.53;;;11.83;63.54
50268;BME280;36153;50.960;6.220;2023-04-07T05:17:53;100517.19;;;11.73;63.66
50268;BME280;36153;50.960;6.220;2023-04-07T05:20:54;100518.13;;;11.79;63.95
50268;BME280;36153;50.960;6.220;2023-04-07T05:23:54;100521.66;;;11.88;63.72
50268;BME280;36153;50.960;6.220;2023-04-07T05:26:55;100517.28;;;11.84;63.97
50268;BME280;36153;50.960;6.220;2023-04-07T05:29:56;100519.78;;;11.68;64.37
50268;BME280;36153;50.960;6.220;2023-04-07T05:32:56;100517.91;;;11.52;65.08
50268;BME280;36153;50.960;6.220;2023-04-07T05:35:57;100523.22;;;11.63;64.91
50268;BME280;36153;50.960;6.220;2023-04-07T05:38:57;100518.88;;;11.63;65.40
50268;BME280;36153;50.960;6.220;2023-04-07T05:41:58;100523.03;;;11.39;65.74
50268;BME280;36153;50.960;6.220;2023-04-07T05:44:58;100524.63;;;11.22;66.89
50268;BME280;36153;50.960;6.220;2023-04-07T05:47:59;100533.56;;;11.52;65.81
50268;BME280;36153;50.960;6.220;2023-04-07T05:50:59;100533.66;;;11.66;64.96
50268;BME280;36153;50.960;6.220;2023-04-07T05:54:01;100533.75;;;11.76;65.04
50268;BME280;36153;50.960;6.220;2023-04-07T05:57:04;100538.06;;;11.73;64.60
50268;BME280;36153;50.960;6.220;2023-04-07T06:00:05;100538.91;;;11.70;64.80
50268;BME280;36153;50.960;6.220;2023-04-07T06:03:06;100539.75;;;11.66;65.25
50268;BME280;36153;50.960;6.220;2023-04-07T06:06:06;100545.03;;;11.72;64.77
50268;BME280;36153;50.960;6.220;2023-04-07T06:09:07;100552.84;;;11.72;65.12
50268;BME280;36153;50.960;6.220;2023-04-07T06:12:08;100549.31;;;11.67;64.82
50268;BME280;36153;50.960;6.220;2023-04-07T06:15:10;100554.59;;;11.75;64.90
50268;BME280;36153;50.960;6.220;2023-04-07T06:18:10;100561.44;;;11.62;64.96
50268;BME280;36153;50.960;6.220;2023-04-07T06:21:11;100555.38;;;11.66;65.01
50268;BME280;36153;50.960;6.220;2023-04-07T06:24:11;100560.78;;;11.91;64.74
50268;BME280;36153;50.960;6.220;2023-04-07T06:27:12;100566.84;;;11.87;64.40
50268;BME280;36153;50.960;6.220;2023-04-07T06:30:13;100567.72;;;11.86;64.31
50268;BME280;36153;50.960;6.220;2023-04-07T06:33:13;100578.19;;;11.89;64.44
50268;BME280;36153;50.960;6.220;2023-04-07T06:36:14;100578.34;;;12.07;64.15
50268;BME280;36153;50.960;6.220;2023-04-07T06:39:14;100580.03;;;12.04;63.82
50268;BME280;36153;50.960;6.220;2023-04-07T06:42:15;100582.63;;;12.02;63.87
50268;BME280;36153;50.960;6.220;2023-04-07T06:45:15;100583.53;;;12.04;63.84
50268;BME280;36153;50.960;6.220;2023-04-07T06:48:16;100587.00;;;12.02;63.71
50268;BME280;36153;50.960;6.220;2023-04-07T06:51:17;100591.28;;;11.95;64.10
50268;BME280;36153;50.960;6.220;2023-04-07T06:54:20;100591.47;;;12.26;63.99
50268;BME280;36153;50.960;6.220;2023-04-07T06:57:21;100596.78;;;12.38;63.69
50268;BME280;36153;50.960;6.220;2023-04-07T07:00:24;100597.59;;;12.26;63.82
50268;BME280;36153;50.960;6.220;2023-04-07T07:03:27;100600.19;;;12.25;63.69
50268;BME280;36153;50.960;6.220;2023-04-07T07:06:28;100598.44;;;12.25;64.08
50268;BME280;36153;50.960;6.220;2023-04-07T07:09:29;100602.81;;;12.26;63.85
50268;BME280;36153;50.960;6.220;2023-04-07T07:12:30;100608.13;;;12.46;63.54
50268;BME280;36153;50.960;6.220;2023-04-07T07:15:31;100609.00;;;12.45;63.55
50268;BME280;36153;50.960;6.220;2023-04-07T07:18:32;100608.25;;;12.70;62.89
50268;BME280;36153;50.960;6.220;2023-04-07T07:21:32;100616.09;;;12.71;63.02
50268;BME280;36153;50.960;6.220;2023-04-07T07:24:33;100615.19;;;12.58;63.31
50268;BME280;36153;50.960;6.220;2023-04-07T07:27:33;100613.44;;;12.57;63.51
50268;BME280;36153;50.960;6.220;2023-04-07T07:30:34;100621.25;;;12.56;63.34
50268;BME280;36153;50.960;6.220;2023-04-07T07:33:34;100623.88;;;12.59;63.22
50268;BME280;36153;50.960;6.220;2023-04-07T07:36:35;100626.47;;;12.56;63.05
50268;BME280;36153;50.960;6.220;2023-04-07T07:39:36;100629.09;;;12.57;63.14
50268;BME280;36153;50.960;6.220;2023-04-07T07:42:37;100628.16;;;12.44;63.21
50268;BME280;36153;50.960;6.220;2023-04-07T07:45:37;100627.31;;;12.52;63.27
50268;BME280;36153;50.960;6.220;2023-04-07T07:48:38;100630.84;;;12.61;62.72
50268;BME280;36153;50.960;6.220;2023-04-07T07:51:39;100630.72;;;12.37;63.33
50268;BME280;36153;50.960;6.220;2023-04-07T07:54:40;100630.78;;;12.48;63.00
50268;BME280;36153;50.960;6.220;2023-04-07T07:57:40;100632.56;;;12.58;62.91
50268;BME280;36153;50.960;6.220;2023-04-07T08:00:41;100635.22;;;12.61;62.96
50268;BME280;36153;50.960;6.220;2023-04-07T08:03:41;100642.16;;;12.59;62.98
50268;BME280;36153;50.960;6.220;2023-04-07T08:06:42;100647.28;;;12.42;63.46
50268;BME280;36153;50.960;6.220;2023-04-07T08:09:42;100645.63;;;12.58;63.02
50268;BME280;36153;50.960;6.220;2023-04-07T08:12:43;100650.94;;;12.73;62.53
50268;BME280;36153;50.960;6.220;2023-04-07T08:15:43;100649.06;;;12.48;63.45
50268;BME280;36153;50.960;6.220;2023-04-07T08:18:44;100653.50;;;12.62;62.83
50268;BME280;36153;50.960;6.220;2023-04-07T08:21:46;100662.22;;;12.69;62.69
50268;BME280;36153;50.960;6.220;2023-04-07T08:24:47;100650.03;;;12.65;63.30
50268;BME280;36153;50.960;6.220;2023-04-07T08:27:47;100665.84;;;12.99;63.19
50268;BME280;36153;50.960;6.220;2023-04-07T08:30:48;100658.88;;;12.93;61.93
50268;BME280;36153;50.960;6.220;2023-04-07T08:33:49;100666.81;;;13.26;61.59
50268;BME280;36153;50.960;6.220;2023-04-07T08:36:53;100659.94;;;13.49;61.06
50268;BME280;36153;50.960;6.220;2023-04-07T08:39:53;100675.56;;;13.31;61.06
50268;BME280;36153;50.960;6.220;2023-04-07T08:42:55;100671.09;;;12.97;61.50
50268;BME280;36153;50.960;6.220;2023-04-07T08:45:58;100675.63;;;13.43;60.74
50268;BME280;36153;50.960;6.220;2023-04-07T08:49:00;100680.78;;;13.28;60.90
50268;BME280;36153;50.960;6.220;2023-04-07T08:52:05;100681.72;;;13.45;59.96
50268;BME280;36153;50.960;6.220;2023-04-07T08:55:06;100680.81;;;13.36;59.76
50268;BME280;36153;50.960;6.220;2023-04-07T08:58:12;100679.97;;;13.43;60.30
50268;BME280;36153;50.960;6.220;2023-04-07T09:01:13;100693.09;;;13.61;59.88
50268;BME280;36153;50.960;6.220;2023-04-07T09:04:17;100682.63;;;13.51;60.17
50268;BME280;36153;50.960;6.220;2023-04-07T09:07:18;100689.66;;;13.81;59.36
50268;BME280;36153;50.960;6.220;2023-04-07T09:10:20;100684.38;;;13.58;59.83
50268;BME280;36153;50.960;6.220;2023-04-07T09:13:20;100686.97;;;13.55;60.10
50268;BME280;36153;50.960;6.220;2023-04-07T09:16:22;100703.41;;;13.26;60.42
50268;BME280;36153;50.960;6.220;2023-04-07T09:19:26;100697.34;;;13.33;60.61
50268;BME280;36153;50.960;6.220;2023-04-07T09:22:39;100700.88;;;13.41;60.50
50268;BME280;36153;50.960;6.220;2023-04-07T09:25:41;100697.41;;;13.42;60.21
50268;BME280;36153;50.960;6.220;2023-04-07T09:28:43;100701.72;;;13.31;60.86
50268;BME280;36153;50.960;6.220;2023-04-07T09:31:49;100705.25;;;13.38;60.51
50268;BME280;36153;50.960;6.220;2023-04-07T09:34:57;100709.63;;;13.45;60.11
50268;BME280;36153;50.960;6.220;2023-04-07T09:38:08;100699.16;;;13.40;60.30
50268;BME280;36153;50.960;6.220;2023-04-07T09:44:09;100694.84;;;13.61;59.38
50268;BME280;36153;50.960;6.220;2023-04-07T09:47:10;100687.91;;;13.81;58.96
50268;BME280;36153;50.960;6.220;2023-04-07T09:50:11;100693.16;;;13.89;58.81
50268;BME280;36153;50.960;6.220;2023-04-07T09:53:11;100697.47;;;13.73;58.92
50268;BME280;36153;50.960;6.220;2023-04-07T09:56:13;100700.09;;;13.76;59.02
50268;BME280;36153;50.960;6.220;2023-04-07T09:59:16;100707.91;;;13.58;59.64
50268;BME280;36153;50.960;6.220;2023-04-07T10:02:16;100701.81;;;13.56;59.66
50268;BME280;36153;50.960;6.220;2023-04-07T10:05:18;100700.03;;;13.41;60.36
50268;BME280;36153;50.960;6.220;2023-04-07T10:08:22;100704.44;;;13.62;59.62
50268;BME280;36153;50.960;6.220;2023-04-07T10:11:22;100706.16;;;13.52;59.95
50268;BME280;36153;50.960;6.220;2023-04-07T10:14:27;100707.88;;;13.41;60.09
50268;BME280;36153;50.960;6.220;2023-04-07T10:17:28;100706.16;;;13.58;60.07
50268;BME280;36153;50.960;6.220;2023-04-07T10:20:28;100715.78;;;13.70;59.72
50268;BME280;36153;50.960;6.220;2023-04-07T10:26:53;100707.94;;;14.46;58.46
50268;BME280;36153;50.960;6.220;2023-04-07T10:29:56;100716.69;;;14.39;57.22
50268;BME280;36153;50.960;6.220;2023-04-07T10:32:57;100719.31;;;13.91;58.09
50268;BME280;36153;50.960;6.220;2023-04-07T10:36:05;100708.88;;;14.02;58.41
50268;BME280;36153;50.960;6.220;2023-04-07T10:42:06;100717.59;;;14.14;57.85
50268;BME280;36153;50.960;6.220;2023-04-07T10:49:19;100714.06;;;14.74;56.28
50268;BME280;36153;50.960;6.220;2023-04-07T10:52:21;100717.56;;;14.62;56.22
50268;BME280;36153;50.960;6.220;2023-04-07T10:58:30;100729.69;;;15.05;54.87
50268;BME280;36153;50.960;6.220;2023-04-07T11:01:31;100722.69;;;15.13;54.84
50268;BME280;36153;50.960;6.220;2023-04-07T11:04:40;100728.88;;;14.94;55.35
50268;BME280;36153;50.960;6.220;2023-04-07T11:07:43;100727.06;;;15.05;54.43
50268;BME280;36153;50.960;6.220;2023-04-07T11:10:46;100727.16;;;14.79;54.76
50268;BME280;36153;50.960;6.220;2023-04-07T11:13:49;100725.41;;;14.56;55.06
50268;BME280;36153;50.960;6.220;2023-04-07T11:16:49;100732.41;;;14.51;55.09
50268;BME280;36153;50.960;6.220;2023-04-07T11:19:53;100728.06;;;14.67;55.12
50268;BME280;36153;50.960;6.220;2023-04-07T11:22:59;100728.03;;;14.76;55.01
50268;BME280;36153;50.960;6.220;2023-04-07T11:26:01;100735.00;;;14.79;54.22
50268;BME280;36153;50.960;6.220;2023-04-07T11:29:02;100733.25;;;14.85;54.48
50268;BME280;36153;50.960;6.220;2023-04-07T11:32:03;100729.78;;;14.85;54.75
50268;BME280;36153;50.960;6.220;2023-04-07T11:35:07;100730.53;;;15.18;53.34
50268;BME280;36153;50.960;6.220;2023-04-07T11:38:07;100738.31;;;15.38;53.41
50268;BME280;36153;50.960;6.220;2023-04-07T11:41:13;100743.56;;;15.35;53.11
50268;BME280;36153;50.960;6.220;2023-04-07T11:44:13;100748.97;;;14.95;53.81
50268;BME280;36153;50.960;6.220;2023-04-07T11:47:14;100735.84;;;14.98;53.40
50268;BME280;36153;50.960;6.220;2023-04-07T11:50:15;100740.22;;;14.93;53.55
50268;BME280;36153;50.960;6.220;2023-04-07T11:53:33;100747.22;;;14.92;53.64
50268;BME280;36153;50.960;6.220;2023-04-07T11:56:45;100750.63;;;15.17;53.69
50268;BME280;36153;50.960;6.220;2023-04-07T11:59:46;100756.78;;;15.07;53.94
50268;BME280;36153;50.960;6.220;2023-04-07T12:02:49;100755.94;;;15.02;54.38
50268;BME280;36153;50.960;6.220;2023-04-07T12:05:50;100759.31;;;15.38;53.25
50268;BME280;36153;50.960;6.220;2023-04-07T12:08:51;100763.59;;;15.53;52.77
50268;BME280;36153;50.960;6.220;2023-04-07T12:11:52;100760.78;;;15.98;51.90
50268;BME280;36153;50.960;6.220;2023-04-07T12:14:53;100768.63;;;15.95;51.71
50268;BME280;36153;50.960;6.220;2023-04-07T12:17:54;100768.16;;;16.60;50.59
50268;BME280;36153;50.960;6.220;2023-04-07T12:20:55;100768.72;;;15.84;50.83
50268;BME280;36153;50.960;6.220;2023-04-07T12:23:56;100774.72;;;16.03;51.38
50268;BME280;36153;50.960;6.220;2023-04-07T12:26:57;100778.22;;;16.00;51.36
50268;BME280;36153;50.960;6.220;2023-04-07T12:29:57;100776.56;;;15.89;51.37
50268;BME280;36153;50.960;6.220;2023-04-07T12:32:58;100783.69;;;15.56;51.64
50268;BME280;36153;50.960;6.220;2023-04-07T12:35:58;100780.34;;;15.26;52.81
50268;BME280;36153;50.960;6.220;2023-04-07T12:38:59;100783.84;;;15.15;53.25
50268;BME280;36153;50.960;6.220;2023-04-07T12:42:00;100783.91;;;14.94;53.44
50268;BME280;36153;50.960;6.220;2023-04-07T12:45:00;100783.94;;;14.54;54.57
50268;BME280;36153;50.960;6.220;2023-04-07T12:48:02;100777.81;;;14.53;55.05
50268;BME280;36153;50.960;6.220;2023-04-07T12:51:03;100797.88;;;14.37;55.70
50268;BME280;36153;50.960;6.220;2023-04-07T12:54:04;100793.41;;;13.77;57.68
50268;BME280;36153;50.960;6.220;2023-04-07T12:57:05;100801.25;;;13.68;57.14
50268;BME280;36153;50.960;6.220;2023-04-07T13:00:06;100803.91;;;13.85;56.76
50268;BME280;36153;50.960;6.220;2023-04-07T13:03:07;100799.56;;;14.01;56.55
50268;BME280;36153;50.960;6.220;2023-04-07T13:06:09;100791.75;;;14.15;55.76
50268;BME280;36153;50.960;6.220;2023-04-07T13:09:10;100799.66;;;14.33;55.40
50268;BME280;36153;50.960;6.220;2023-04-07T13:12:11;100798.78;;;14.84;55.33
50268;BME280;36153;50.960;6.220;2023-04-07T13:15:11;100790.84;;;15.07;54.13
50268;BME280;36153;50.960;6.220;2023-04-07T13:18:12;100797.03;;;14.74;54.17
50268;BME280;36153;50.960;6.220;2023-04-07T13:21:12;100802.25;;;14.98;54.11
50268;BME280;36153;50.960;6.220;2023-04-07T13:24:13;100796.09;;;15.16;53.39
50268;BME280;36153;50.960;6.220;2023-04-07T13:27:14;100797.91;;;14.79;53.65
50268;BME280;36153;50.960;6.220;2023-04-07T13:30:14;100798.59;;;15.47;53.62
50268;BME280;36153;50.960;6.220;2023-04-07T13:33:15;100809.81;;;15.93;52.21
50268;BME280;36153;50.960;6.220;2023-04-07T13:36:15;100788.78;;;15.93;51.52
50268;BME280;36153;50.960;6.220;2023-04-07T13:39:16;100795.41;;;16.49;50.02
50268;BME280;36153;50.960;6.220;2023-04-07T13:42:17;100794.03;;;17.04;49.39
50268;BME280;36153;50.960;6.220;2023-04-07T13:45:24;100791.81;;;16.58;49.56
50268;BME280;36153;50.960;6.220;2023-04-07T13:48:25;100791.56;;;16.86;49.23
50268;BME280;36153;50.960;6.220;2023-04-07T13:51:26;100791.84;;;16.52;49.85
50268;BME280;36153;50.960;6.220;2023-04-07T13:54:27;100803.69;;;15.89;50.61
50268;BME280;36153;50.960;6.220;2023-04-07T13:57:28;100802.00;;;15.80;50.73
50268;BME280;36153;50.960;6.220;2023-04-07T14:00:28;100790.47;;;16.06;50.27
50268;BME280;36153;50.960;6.220;2023-04-07T14:03:29;100794.25;;;15.40;51.56
50268;BME280;36153;50.960;6.220;2023-04-07T14:06:29;100793.50;;;15.09;52.97
50268;BME280;36153;50.960;6.220;2023-04-07T14:09:30;100811.84;;;14.48;55.60
50268;BME280;36153;50.960;6.220;2023-04-07T14:12:31;100813.59;;;14.34;57.50
50268;BME280;36153;50.960;6.220;2023-04-07T14:15:33;100807.50;;;14.54;57.88
50268;BME280;36153;50.960;6.220;2023-04-07T14:18:34;100814.47;;;14.59;57.89
50268;BME280;36153;50.960;6.220;2023-04-07T14:21:34;100810.16;;;14.75;58.52
50268;BME280;36153;50.960;6.220;2023-04-07T14:24:35;100808.41;;;14.85;57.32
50268;BME280;36153;50.960;6.220;2023-04-07T14:27:36;100815.34;;;15.00;57.31
50268;BME280;36153;50.960;6.220;2023-04-07T14:30:36;100808.28;;;15.33;57.78
50268;BME280;36153;50.960;6.220;2023-04-07T14:33:38;100811.66;;;15.60;56.47
50268;BME280;36153;50.960;6.220;2023-04-07T14:36:38;100809.88;;;15.71;55.58
50268;BME280;36153;50.960;6.220;2023-04-07T14:39:39;100812.59;;;15.51;55.28
50268;BME280;36153;50.960;6.220;2023-04-07T14:42:39;100812.63;;;15.42;55.45
50268;BME280;36153;50.960;6.220;2023-04-07T14:45:40;100816.97;;;15.47;55.26
50268;BME280;36153;50.960;6.220;2023-04-07T14:48:41;100808.34;;;15.04;55.77
50268;BME280;36153;50.960;6.220;2023-04-07T14:51:42;100813.59;;;14.52;56.30
50268;BME280;36153;50.960;6.220;2023-04-07T14:54:43;100818.84;;;14.34;56.69
50268;BME280;36153;50.960;6.220;2023-04-07T14:57:44;100824.97;;;14.42;56.47
50268;BME280;36153;50.960;6.220;2023-04-07T15:00:45;100832.66;;;13.80;58.97
50268;BME280;36153;50.960;6.220;2023-04-07T15:03:45;100835.31;;;13.94;59.44
50268;BME280;36153;50.960;6.220;2023-04-07T15:06:46;100833.59;;;14.04;60.39
50268;BME280;36153;50.960;6.220;2023-04-07T15:09:49;100839.69;;;13.98;59.97
50268;BME280;36153;50.960;6.220;2023-04-07T15:12:50;100839.75;;;14.08;59.63
50268;BME280;36153;50.960;6.220;2023-04-07T15:15:50;100843.22;;;13.99;60.14
50268;BME280;36153;50.960;6.220;2023-04-07T15:18:51;100841.50;;;14.12;59.91
50268;BME280;36153;50.960;6.220;2023-04-07T15:21:51;100841.41;;;13.82;60.15
50268;BME280;36153;50.960;6.220;2023-04-07T15:24:52;100846.59;;;13.76;60.28
50268;BME280;36153;50.960;6.220;2023-04-07T15:27:53;100849.16;;;13.61;60.96
50268;BME280;36153;50.960;6.220;2023-04-07T15:30:53;100846.47;;;13.44;61.55
50268;BME280;36153;50.960;6.220;2023-04-07T15:33:54;100841.41;;;13.89;61.07
50268;BME280;36153;50.960;6.220;2023-04-07T15:36:55;100848.31;;;13.65;60.94
50268;BME280;36153;50.960;6.220;2023-04-07T15:39:55;100850.06;;;13.72;60.73
50268;BME280;36153;50.960;6.220;2023-04-07T15:42:56;100855.41;;;13.98;60.60
50268;BME280;36153;50.960;6.220;2023-04-07T15:45:56;100852.81;;;14.11;59.68
50268;BME280;36153;50.960;6.220;2023-04-07T15:48:58;100855.47;;;14.15;59.33
50268;BME280;36153;50.960;6.220;2023-04-07T15:51:59;100855.47;;;14.15;59.45
50268;BME280;36153;50.960;6.220;2023-04-07T15:55:00;100851.97;;;14.16;59.94
50268;BME280;36153;50.960;6.220;2023-04-07T15:58:01;100859.84;;;14.20;59.34
50268;BME280;36153;50.960;6.220;2023-04-07T16:01:02;100860.72;;;14.19;59.21
50268;BME280;36153;50.960;6.220;2023-04-07T16:04:04;100862.47;;;14.23;59.30
50268;BME280;36153;50.960;6.220;2023-04-07T16:07:04;100862.44;;;14.16;59.27
50268;BME280;36153;50.960;6.220;2023-04-07T16:10:06;100871.22;;;14.29;59.49
50268;BME280;36153;50.960;6.220;2023-04-07T16:13:08;100869.47;;;14.34;58.96
50268;BME280;36153;50.960;6.220;2023-04-07T16:16:09;100869.47;;;14.24;58.53